sensor_id;sensor_type;location;lat;lon;timestamp;P1;durP1;ratioP1;P2;durP2;ratioP2
79308;SDS011;68767;53.078;7.386;2023-08-20T00:01:25;17.17;;;7.00;;
79308;SDS011;68767;53.078;7.386;2023-08-20T00:03:54;15.90;;;6.60;;
79308;SDS011;68767;53.078;7.386;2023-08-20T00:06:22;11.95;;;6.85;;
79308;SDS011;68767;53.078;7.386;2023-08-20T00:08:50;17.83;;;6.55;;
79308;SDS011;68767;53.078;7.386;2023-08-20T00:11:18;16.25;;;6.03;;
79308;SDS011;68767;53.078;7.386;2023-08-20T00:13:45;19.80;;;6.28;;
79308;SDS011;68767;53.078;7.386;2023-08-20T00:16:12;21.27;;;7.25;;
79308;SDS011;68767;53.078;7.386;2023-08-20T00:18:40;17.10;;;7.18;;
79308;SDS011;68767;53.078;7.386;2023-08-20T00:21:07;16.85;;;6.85;;
79308;SDS011;68767;53.078;7.386;2023-08-20T00:23:35;18.65;;;6.80;;
79308;SDS011;68767;53.078;7.386;2023-08-20T00:26:03;20.25;;;7.45;;
79308;SDS011;68767;53.078;7.386;2023-08-20T00:28:31;18.70;;;7.13;;
79308;SDS011;68767;53.078;7.386;2023-08-20T00:31:02;17.70;;;6.88;;
79308;SDS011;68767;53.078;7.386;2023-08-20T00:33:29;16.65;;;5.90;;
79308;SDS011;68767;53.078;7.386;2023-08-20T00:35:56;11.93;;;6.32;;
79308;SDS011;68767;53.078;7.386;2023-08-20T00:38:23;21.50;;;5.75;;
79308;SDS011;68767;53.078;7.386;2023-08-20T00:40:50;12.63;;;5.82;;
79308;SDS011;68767;53.078;7.386;2023-08-20T00:43:17;18.63;;;6.68;;
79308;SDS011;68767;53.078;7.386;2023-08-20T00:45:44;14.63;;;6.60;;
79308;SDS011;68767;53.078;7.386;2023-08-20T00:48:11;16.50;;;6.70;;
79308;SDS011;68767;53.078;7.386;2023-08-20T00:50:39;15.15;;;6.22;;
79308;SDS011;68767;53.078;7.386;2023-08-20T00:53:08;22.60;;;7.53;;
79308;SDS011;68767;53.078;7.386;2023-08-20T00:55:38;22.30;;;8.50;;
79308;SDS011;68767;53.078;7.386;2023-08-20T00:58:05;18.55;;;7.47;;
79308;SDS011;68767;53.078;7.386;2023-08-20T01:00:32;19.73;;;7.53;;
79308;SDS011;68767;53.078;7.386;2023-08-20T01:02:59;26.23;;;9.18;;
79308;SDS011;68767;53.078;7.386;2023-08-20T01:05:27;18.95;;;8.27;;
79308;SDS011;68767;53.078;7.386;2023-08-20T01:13:18;19.88;;;8.60;;
79308;SDS011;68767;53.078;7.386;2023-08-20T01:15:46;19.77;;;7.72;;
79308;SDS011;68767;53.078;7.386;2023-08-20T01:18:12;19.50;;;8.10;;
79308;SDS011;68767;53.078;7.386;2023-08-20T01:20:43;15.75;;;7.78;;
79308;SDS011;68767;53.078;7.386;2023-08-20T01:23:28;17.17;;;7.18;;
79308;SDS011;68767;53.078;7.386;2023-08-20T01:26:07;23.05;;;8.52;;
79308;SDS011;68767;53.078;7.386;2023-08-20T01:28:39;14.70;;;7.82;;
79308;SDS011;68767;53.078;7.386;2023-08-20T01:31:09;15.98;;;8.15;;
79308;SDS011;68767;53.078;7.386;2023-08-20T01:33:39;19.13;;;8.05;;
79308;SDS011;68767;53.078;7.386;2023-08-20T01:36:07;14.77;;;7.95;;
79308;SDS011;68767;53.078;7.386;2023-08-20T01:38:39;16.80;;;8.40;;
79308;SDS011;68767;53.078;7.386;2023-08-20T01:41:06;18.13;;;7.85;;
79308;SDS011;68767;53.078;7.386;2023-08-20T01:43:33;21.50;;;7.35;;
79308;SDS011;68767;53.078;7.386;2023-08-20T01:46:00;18.02;;;6.95;;
79308;SDS011;68767;53.078;7.386;2023-08-20T01:48:27;20.10;;;8.50;;
79308;SDS011;68767;53.078;7.386;2023-08-20T01:50:54;17.85;;;8.30;;
79308;SDS011;68767;53.078;7.386;2023-08-20T01:53:22;21.27;;;8.63;;
79308;SDS011;68767;53.078;7.386;2023-08-20T01:55:49;16.08;;;8.23;;
79308;SDS011;68767;53.078;7.386;2023-08-20T01:58:16;15.80;;;8.20;;
79308;SDS011;68767;53.078;7.386;2023-08-20T02:00:44;21.88;;;7.47;;
79308;SDS011;68767;53.078;7.386;2023-08-20T02:03:11;16.50;;;7.47;;
79308;SDS011;68767;53.078;7.386;2023-08-20T02:05:38;20.50;;;7.63;;
79308;SDS011;68767;53.078;7.386;2023-08-20T02:08:08;15.05;;;6.80;;
79308;SDS011;68767;53.078;7.386;2023-08-20T02:10:36;14.45;;;7.07;;
79308;SDS011;68767;53.078;7.386;2023-08-20T02:13:04;15.73;;;7.50;;
79308;SDS011;68767;53.078;7.386;2023-08-20T02:15:31;16.52;;;7.55;;
79308;SDS011;68767;53.078;7.386;2023-08-20T02:17:59;15.02;;;7.68;;
79308;SDS011;68767;53.078;7.386;2023-08-20T02:20:28;22.60;;;7.35;;
79308;SDS011;68767;53.078;7.386;2023-08-20T02:22:55;12.32;;;6.47;;
79308;SDS011;68767;53.078;7.386;2023-08-20T02:25:23;17.45;;;7.97;;
79308;SDS011;68767;53.078;7.386;2023-08-20T02:27:53;15.27;;;8.23;;
79308;SDS011;68767;53.078;7.386;2023-08-20T02:30:20;20.42;;;8.90;;
79308;SDS011;68767;53.078;7.386;2023-08-20T02:32:47;19.45;;;8.15;;
79308;SDS011;68767;53.078;7.386;2023-08-20T02:35:14;24.23;;;7.30;;
79308;SDS011;68767;53.078;7.386;2023-08-20T02:37:43;24.33;;;9.68;;
79308;SDS011;68767;53.078;7.386;2023-08-20T02:40:10;18.38;;;9.23;;
79308;SDS011;68767;53.078;7.386;2023-08-20T02:42:38;23.17;;;9.45;;
79308;SDS011;68767;53.078;7.386;2023-08-20T02:45:05;21.73;;;8.40;;
79308;SDS011;68767;53.078;7.386;2023-08-20T02:47:32;16.30;;;8.00;;
79308;SDS011;68767;53.078;7.386;2023-08-20T02:50:01;25.33;;;8.32;;
79308;SDS011;68767;53.078;7.386;2023-08-20T02:52:31;16.63;;;8.38;;
79308;SDS011;68767;53.078;7.386;2023-08-20T02:54:58;17.45;;;8.25;;
79308;SDS011;68767;53.078;7.386;2023-08-20T02:57:25;16.38;;;8.25;;
79308;SDS011;68767;53.078;7.386;2023-08-20T02:59:52;18.83;;;8.30;;
79308;SDS011;68767;53.078;7.386;2023-08-20T03:02:19;19.73;;;9.85;;
79308;SDS011;68767;53.078;7.386;2023-08-20T03:04:46;20.08;;;9.05;;
79308;SDS011;68767;53.078;7.386;2023-08-20T03:07:13;17.15;;;8.77;;
79308;SDS011;68767;53.078;7.386;2023-08-20T03:09:41;16.30;;;8.93;;
79308;SDS011;68767;53.078;7.386;2023-08-20T03:12:08;21.48;;;8.80;;
79308;SDS011;68767;53.078;7.386;2023-08-20T03:14:35;16.35;;;7.95;;
79308;SDS011;68767;53.078;7.386;2023-08-20T03:17:02;17.00;;;8.88;;
79308;SDS011;68767;53.078;7.386;2023-08-20T03:19:33;18.88;;;8.05;;
79308;SDS011;68767;53.078;7.386;2023-08-20T03:22:01;15.90;;;8.32;;
79308;SDS011;68767;53.078;7.386;2023-08-20T03:24:32;16.52;;;9.68;;
79308;SDS011;68767;53.078;7.386;2023-08-20T03:26:58;25.83;;;8.68;;
79308;SDS011;68767;53.078;7.386;2023-08-20T03:29:25;19.42;;;9.25;;
79308;SDS011;68767;53.078;7.386;2023-08-20T03:31:52;23.88;;;10.13;;
79308;SDS011;68767;53.078;7.386;2023-08-20T03:34:20;25.00;;;8.77;;
79308;SDS011;68767;53.078;7.386;2023-08-20T03:36:47;25.88;;;10.52;;
79308;SDS011;68767;53.078;7.386;2023-08-20T03:39:14;32.22;;;10.75;;
79308;SDS011;68767;53.078;7.386;2023-08-20T03:41:41;27.25;;;10.00;;
79308;SDS011;68767;53.078;7.386;2023-08-20T03:44:08;24.10;;;10.63;;
79308;SDS011;68767;53.078;7.386;2023-08-20T03:46:35;24.33;;;9.30;;
79308;SDS011;68767;53.078;7.386;2023-08-20T03:49:02;16.95;;;9.70;;
79308;SDS011;68767;53.078;7.386;2023-08-20T03:51:30;22.95;;;10.02;;
79308;SDS011;68767;53.078;7.386;2023-08-20T03:53:57;24.08;;;8.85;;
79308;SDS011;68767;53.078;7.386;2023-08-20T03:56:24;20.90;;;8.93;;
79308;SDS011;68767;53.078;7.386;2023-08-20T03:58:51;29.08;;;8.98;;
79308;SDS011;68767;53.078;7.386;2023-08-20T04:01:19;23.35;;;9.20;;
79308;SDS011;68767;53.078;7.386;2023-08-20T04:03:46;19.70;;;9.10;;
79308;SDS011;68767;53.078;7.386;2023-08-20T04:06:14;15.80;;;8.23;;
79308;SDS011;68767;53.078;7.386;2023-08-20T04:08:42;22.42;;;9.43;;
79308;SDS011;68767;53.078;7.386;2023-08-20T04:11:10;36.92;;;9.75;;
79308;SDS011;68767;53.078;7.386;2023-08-20T04:13:39;23.70;;;8.68;;
79308;SDS011;68767;53.078;7.386;2023-08-20T04:16:06;21.17;;;9.80;;
79308;SDS011;68767;53.078;7.386;2023-08-20T04:18:34;22.92;;;9.13;;
79308;SDS011;68767;53.078;7.386;2023-08-20T04:21:00;20.23;;;8.73;;
79308;SDS011;68767;53.078;7.386;2023-08-20T04:23:28;25.45;;;10.27;;
79308;SDS011;68767;53.078;7.386;2023-08-20T04:25:55;21.90;;;9.50;;
79308;SDS011;68767;53.078;7.386;2023-08-20T04:28:22;35.28;;;10.25;;
79308;SDS011;68767;53.078;7.386;2023-08-20T04:30:51;18.73;;;7.90;;
79308;SDS011;68767;53.078;7.386;2023-08-20T04:33:22;26.08;;;9.52;;
79308;SDS011;68767;53.078;7.386;2023-08-20T04:35:49;29.42;;;9.63;;
79308;SDS011;68767;53.078;7.386;2023-08-20T04:38:19;26.00;;;10.48;;
79308;SDS011;68767;53.078;7.386;2023-08-20T04:40:47;21.23;;;8.40;;
79308;SDS011;68767;53.078;7.386;2023-08-20T04:43:14;27.40;;;9.13;;
79308;SDS011;68767;53.078;7.386;2023-08-20T04:45:42;22.88;;;10.10;;
79308;SDS011;68767;53.078;7.386;2023-08-20T04:48:09;32.13;;;9.88;;
79308;SDS011;68767;53.078;7.386;2023-08-20T04:50:36;18.70;;;8.65;;
79308;SDS011;68767;53.078;7.386;2023-08-20T04:53:03;23.13;;;11.27;;
79308;SDS011;68767;53.078;7.386;2023-08-20T04:55:30;25.75;;;10.40;;
79308;SDS011;68767;53.078;7.386;2023-08-20T04:57:57;20.83;;;10.65;;
79308;SDS011;68767;53.078;7.386;2023-08-20T05:00:24;18.90;;;8.50;;
79308;SDS011;68767;53.078;7.386;2023-08-20T05:02:56;24.70;;;10.48;;
79308;SDS011;68767;53.078;7.386;2023-08-20T05:05:25;21.75;;;10.23;;
79308;SDS011;68767;53.078;7.386;2023-08-20T05:07:53;27.13;;;11.02;;
79308;SDS011;68767;53.078;7.386;2023-08-20T05:10:20;22.58;;;10.30;;
79308;SDS011;68767;53.078;7.386;2023-08-20T05:12:47;28.23;;;10.63;;
79308;SDS011;68767;53.078;7.386;2023-08-20T05:15:15;25.83;;;10.68;;
79308;SDS011;68767;53.078;7.386;2023-08-20T05:17:42;24.48;;;10.43;;
79308;SDS011;68767;53.078;7.386;2023-08-20T05:20:09;23.42;;;9.90;;
79308;SDS011;68767;53.078;7.386;2023-08-20T05:22:37;25.15;;;10.32;;
79308;SDS011;68767;53.078;7.386;2023-08-20T05:25:04;23.60;;;10.18;;
79308;SDS011;68767;53.078;7.386;2023-08-20T05:27:31;26.80;;;10.38;;
79308;SDS011;68767;53.078;7.386;2023-08-20T05:30:01;21.42;;;11.10;;
79308;SDS011;68767;53.078;7.386;2023-08-20T05:32:30;21.90;;;10.40;;
79308;SDS011;68767;53.078;7.386;2023-08-20T05:34:57;23.52;;;10.43;;
79308;SDS011;68767;53.078;7.386;2023-08-20T05:37:24;26.80;;;11.75;;
79308;SDS011;68767;53.078;7.386;2023-08-20T05:39:51;24.10;;;12.68;;
79308;SDS011;68767;53.078;7.386;2023-08-20T05:42:18;25.83;;;10.43;;
79308;SDS011;68767;53.078;7.386;2023-08-20T05:44:52;25.08;;;10.95;;
79308;SDS011;68767;53.078;7.386;2023-08-20T05:47:24;30.35;;;11.60;;
79308;SDS011;68767;53.078;7.386;2023-08-20T05:49:52;23.35;;;10.95;;
79308;SDS011;68767;53.078;7.386;2023-08-20T05:52:19;24.10;;;11.80;;
79308;SDS011;68767;53.078;7.386;2023-08-20T05:54:46;24.90;;;11.23;;
79308;SDS011;68767;53.078;7.386;2023-08-20T05:57:14;20.15;;;10.27;;
79308;SDS011;68767;53.078;7.386;2023-08-20T05:59:42;34.03;;;13.07;;
79308;SDS011;68767;53.078;7.386;2023-08-20T06:02:09;27.75;;;12.68;;
79308;SDS011;68767;53.078;7.386;2023-08-20T06:04:36;25.40;;;10.80;;
79308;SDS011;68767;53.078;7.386;2023-08-20T06:07:03;28.95;;;13.25;;
79308;SDS011;68767;53.078;7.386;2023-08-20T06:09:30;33.28;;;12.85;;
79308;SDS011;68767;53.078;7.386;2023-08-20T06:11:57;26.80;;;13.02;;
79308;SDS011;68767;53.078;7.386;2023-08-20T06:14:24;23.25;;;12.20;;
79308;SDS011;68767;53.078;7.386;2023-08-20T06:16:51;27.80;;;12.77;;
79308;SDS011;68767;53.078;7.386;2023-08-20T06:19:18;29.63;;;12.15;;
79308;SDS011;68767;53.078;7.386;2023-08-20T06:21:45;27.48;;;12.90;;
79308;SDS011;68767;53.078;7.386;2023-08-20T06:24:12;35.75;;;13.15;;
79308;SDS011;68767;53.078;7.386;2023-08-20T06:26:39;29.38;;;13.30;;
79308;SDS011;68767;53.078;7.386;2023-08-20T06:29:06;32.53;;;13.00;;
79308;SDS011;68767;53.078;7.386;2023-08-20T06:31:33;28.85;;;14.13;;
79308;SDS011;68767;53.078;7.386;2023-08-20T06:34:01;28.17;;;13.77;;
79308;SDS011;68767;53.078;7.386;2023-08-20T06:36:28;28.10;;;13.45;;
79308;SDS011;68767;53.078;7.386;2023-08-20T06:38:56;30.90;;;13.68;;
79308;SDS011;68767;53.078;7.386;2023-08-20T06:41:23;29.45;;;13.00;;
79308;SDS011;68767;53.078;7.386;2023-08-20T06:43:50;35.08;;;13.48;;
79308;SDS011;68767;53.078;7.386;2023-08-20T06:46:17;26.98;;;14.80;;
79308;SDS011;68767;53.078;7.386;2023-08-20T06:48:44;23.13;;;11.80;;
79308;SDS011;68767;53.078;7.386;2023-08-20T06:51:14;27.80;;;13.02;;
79308;SDS011;68767;53.078;7.386;2023-08-20T06:53:42;25.05;;;11.90;;
79308;SDS011;68767;53.078;7.386;2023-08-20T06:56:09;26.85;;;12.20;;
79308;SDS011;68767;53.078;7.386;2023-08-20T06:58:38;18.77;;;10.95;;
79308;SDS011;68767;53.078;7.386;2023-08-20T07:01:07;27.55;;;12.02;;
79308;SDS011;68767;53.078;7.386;2023-08-20T07:03:41;28.42;;;11.18;;
79308;SDS011;68767;53.078;7.386;2023-08-20T07:06:10;27.90;;;10.43;;
79308;SDS011;68767;53.078;7.386;2023-08-20T07:08:40;24.17;;;10.60;;
79308;SDS011;68767;53.078;7.386;2023-08-20T07:11:08;25.55;;;9.85;;
79308;SDS011;68767;53.078;7.386;2023-08-20T07:13:35;20.33;;;9.07;;
79308;SDS011;68767;53.078;7.386;2023-08-20T07:16:02;21.67;;;9.35;;
79308;SDS011;68767;53.078;7.386;2023-08-20T07:18:30;24.30;;;8.55;;
79308;SDS011;68767;53.078;7.386;2023-08-20T07:20:57;22.48;;;7.82;;
79308;SDS011;68767;53.078;7.386;2023-08-20T07:23:24;16.00;;;6.70;;
79308;SDS011;68767;53.078;7.386;2023-08-20T07:26:03;22.02;;;8.40;;
79308;SDS011;68767;53.078;7.386;2023-08-20T07:28:31;17.20;;;6.82;;
79308;SDS011;68767;53.078;7.386;2023-08-20T07:31:16;19.45;;;7.18;;
79308;SDS011;68767;53.078;7.386;2023-08-20T07:33:47;17.95;;;6.53;;
79308;SDS011;68767;53.078;7.386;2023-08-20T07:36:14;17.25;;;6.60;;
79308;SDS011;68767;53.078;7.386;2023-08-20T07:38:42;15.57;;;4.78;;
79308;SDS011;68767;53.078;7.386;2023-08-20T07:41:10;12.27;;;5.07;;
79308;SDS011;68767;53.078;7.386;2023-08-20T07:43:38;11.93;;;4.72;;
79308;SDS011;68767;53.078;7.386;2023-08-20T07:46:06;14.80;;;4.55;;
79308;SDS011;68767;53.078;7.386;2023-08-20T07:48:34;13.52;;;4.15;;
79308;SDS011;68767;53.078;7.386;2023-08-20T07:51:02;12.80;;;4.05;;
79308;SDS011;68767;53.078;7.386;2023-08-20T07:53:30;14.75;;;3.42;;
79308;SDS011;68767;53.078;7.386;2023-08-20T07:55:57;10.65;;;3.35;;
79308;SDS011;68767;53.078;7.386;2023-08-20T07:58:24;14.32;;;4.10;;
79308;SDS011;68767;53.078;7.386;2023-08-20T08:00:54;11.40;;;3.50;;
79308;SDS011;68767;53.078;7.386;2023-08-20T08:03:22;8.20;;;3.67;;
79308;SDS011;68767;53.078;7.386;2023-08-20T08:05:52;12.57;;;3.20;;
79308;SDS011;68767;53.078;7.386;2023-08-20T08:08:20;10.57;;;2.78;;
79308;SDS011;68767;53.078;7.386;2023-08-20T08:10:48;7.95;;;2.95;;
79308;SDS011;68767;53.078;7.386;2023-08-20T08:13:16;12.60;;;3.03;;
79308;SDS011;68767;53.078;7.386;2023-08-20T08:15:46;8.65;;;2.97;;
79308;SDS011;68767;53.078;7.386;2023-08-20T08:18:13;10.20;;;2.65;;
79308;SDS011;68767;53.078;7.386;2023-08-20T08:20:40;20.52;;;3.03;;
79308;SDS011;68767;53.078;7.386;2023-08-20T08:23:08;7.88;;;2.28;;
79308;SDS011;68767;53.078;7.386;2023-08-20T08:25:35;9.95;;;2.60;;
79308;SDS011;68767;53.078;7.386;2023-08-20T08:28:02;8.50;;;2.90;;
79308;SDS011;68767;53.078;7.386;2023-08-20T08:30:30;9.57;;;2.30;;
79308;SDS011;68767;53.078;7.386;2023-08-20T08:32:57;11.80;;;4.20;;
79308;SDS011;68767;53.078;7.386;2023-08-20T08:35:24;12.95;;;2.67;;
79308;SDS011;68767;53.078;7.386;2023-08-20T08:37:51;15.70;;;2.88;;
79308;SDS011;68767;53.078;7.386;2023-08-20T08:40:18;8.30;;;2.40;;
79308;SDS011;68767;53.078;7.386;2023-08-20T08:42:49;11.10;;;2.58;;
79308;SDS011;68767;53.078;7.386;2023-08-20T08:45:20;15.80;;;3.20;;
79308;SDS011;68767;53.078;7.386;2023-08-20T08:47:47;8.25;;;2.72;;
79308;SDS011;68767;53.078;7.386;2023-08-20T08:50:16;8.52;;;2.53;;
79308;SDS011;68767;53.078;7.386;2023-08-20T08:52:44;10.45;;;2.53;;
79308;SDS011;68767;53.078;7.386;2023-08-20T08:55:11;11.60;;;2.63;;
79308;SDS011;68767;53.078;7.386;2023-08-20T08:57:38;10.90;;;2.70;;
79308;SDS011;68767;53.078;7.386;2023-08-20T09:00:06;11.63;;;2.60;;
79308;SDS011;68767;53.078;7.386;2023-08-20T09:02:33;9.18;;;2.25;;
79308;SDS011;68767;53.078;7.386;2023-08-20T09:05:00;8.93;;;2.22;;
79308;SDS011;68767;53.078;7.386;2023-08-20T09:07:27;7.03;;;2.30;;
79308;SDS011;68767;53.078;7.386;2023-08-20T09:09:57;14.43;;;2.33;;
79308;SDS011;68767;53.078;7.386;2023-08-20T09:12:28;9.75;;;2.10;;
79308;SDS011;68767;53.078;7.386;2023-08-20T09:15:00;16.30;;;2.47;;
79308;SDS011;68767;53.078;7.386;2023-08-20T09:17:28;8.63;;;1.90;;
79308;SDS011;68767;53.078;7.386;2023-08-20T09:19:56;8.13;;;2.58;;
79308;SDS011;68767;53.078;7.386;2023-08-20T09:22:26;7.05;;;1.95;;
79308;SDS011;68767;53.078;7.386;2023-08-20T09:24:54;7.57;;;1.90;;
79308;SDS011;68767;53.078;7.386;2023-08-20T09:27:23;8.60;;;2.13;;
79308;SDS011;68767;53.078;7.386;2023-08-20T09:32:22;11.50;;;2.80;;
79308;SDS011;68767;53.078;7.386;2023-08-20T09:34:51;8.05;;;1.90;;
79308;SDS011;68767;53.078;7.386;2023-08-20T09:37:20;6.55;;;2.10;;
79308;SDS011;68767;53.078;7.386;2023-08-20T09:39:49;6.45;;;1.70;;
79308;SDS011;68767;53.078;7.386;2023-08-20T09:42:16;10.98;;;2.10;;
79308;SDS011;68767;53.078;7.386;2023-08-20T09:44:44;6.32;;;1.52;;
79308;SDS011;68767;53.078;7.386;2023-08-20T09:47:16;6.43;;;1.73;;
79308;SDS011;68767;53.078;7.386;2023-08-20T09:49:47;7.70;;;1.90;;
79308;SDS011;68767;53.078;7.386;2023-08-20T09:52:21;6.85;;;1.80;;
79308;SDS011;68767;53.078;7.386;2023-08-20T09:55:07;5.13;;;1.80;;
79308;SDS011;68767;53.078;7.386;2023-08-20T09:57:40;7.00;;;1.90;;
79308;SDS011;68767;53.078;7.386;2023-08-20T10:00:12;6.15;;;2.03;;
79308;SDS011;68767;53.078;7.386;2023-08-20T10:02:51;4.97;;;2.03;;
79308;SDS011;68767;53.078;7.386;2023-08-20T10:05:19;7.60;;;2.20;;
79308;SDS011;68767;53.078;7.386;2023-08-20T10:07:49;7.43;;;1.65;;
79308;SDS011;68767;53.078;7.386;2023-08-20T10:10:17;5.57;;;1.70;;
79308;SDS011;68767;53.078;7.386;2023-08-20T10:12:44;5.63;;;1.52;;
79308;SDS011;68767;53.078;7.386;2023-08-20T10:15:12;5.50;;;1.50;;
79308;SDS011;68767;53.078;7.386;2023-08-20T10:17:41;4.45;;;1.55;;
79308;SDS011;68767;53.078;7.386;2023-08-20T10:20:09;8.10;;;2.22;;
79308;SDS011;68767;53.078;7.386;2023-08-20T10:22:40;5.43;;;1.67;;
79308;SDS011;68767;53.078;7.386;2023-08-20T10:25:12;8.48;;;1.55;;
79308;SDS011;68767;53.078;7.386;2023-08-20T10:28:42;10.18;;;4.10;;
79308;SDS011;68767;53.078;7.386;2023-08-20T10:33:37;5.25;;;1.55;;
79308;SDS011;68767;53.078;7.386;2023-08-20T10:36:23;5.30;;;1.30;;
79308;SDS011;68767;53.078;7.386;2023-08-20T10:38:55;5.90;;;1.70;;
79308;SDS011;68767;53.078;7.386;2023-08-20T10:41:26;5.43;;;1.35;;
79308;SDS011;68767;53.078;7.386;2023-08-20T10:43:58;3.78;;;1.38;;
79308;SDS011;68767;53.078;7.386;2023-08-20T10:46:29;4.28;;;1.25;;
79308;SDS011;68767;53.078;7.386;2023-08-20T10:48:57;6.03;;;1.75;;
79308;SDS011;68767;53.078;7.386;2023-08-20T10:51:33;6.57;;;1.63;;
79308;SDS011;68767;53.078;7.386;2023-08-20T10:54:08;4.13;;;1.42;;
79308;SDS011;68767;53.078;7.386;2023-08-20T10:59:08;4.90;;;2.08;;
79308;SDS011;68767;53.078;7.386;2023-08-20T11:01:58;4.20;;;1.33;;
79308;SDS011;68767;53.078;7.386;2023-08-20T11:04:29;5.63;;;1.60;;
79308;SDS011;68767;53.078;7.386;2023-08-20T11:07:00;4.50;;;1.40;;
79308;SDS011;68767;53.078;7.386;2023-08-20T11:09:29;9.15;;;1.83;;
79308;SDS011;68767;53.078;7.386;2023-08-20T11:14:24;4.38;;;1.13;;
79308;SDS011;68767;53.078;7.386;2023-08-20T11:16:51;7.25;;;1.88;;
79308;SDS011;68767;53.078;7.386;2023-08-20T11:19:22;6.70;;;1.73;;
79308;SDS011;68767;53.078;7.386;2023-08-20T11:21:50;7.38;;;1.33;;
79308;SDS011;68767;53.078;7.386;2023-08-20T11:24:18;6.88;;;1.65;;
79308;SDS011;68767;53.078;7.386;2023-08-20T11:26:47;3.35;;;1.20;;
79308;SDS011;68767;53.078;7.386;2023-08-20T11:29:15;5.13;;;1.48;;
79308;SDS011;68767;53.078;7.386;2023-08-20T11:31:49;3.78;;;1.35;;
79308;SDS011;68767;53.078;7.386;2023-08-20T11:34:18;7.57;;;1.88;;
79308;SDS011;68767;53.078;7.386;2023-08-20T11:36:45;5.57;;;1.25;;
79308;SDS011;68767;53.078;7.386;2023-08-20T11:39:13;4.97;;;1.38;;
79308;SDS011;68767;53.078;7.386;2023-08-20T11:41:40;4.60;;;1.20;;
79308;SDS011;68767;53.078;7.386;2023-08-20T11:44:10;3.72;;;1.17;;
79308;SDS011;68767;53.078;7.386;2023-08-20T11:46:43;7.22;;;1.15;;
79308;SDS011;68767;53.078;7.386;2023-08-20T11:49:12;2.75;;;0.93;;
79308;SDS011;68767;53.078;7.386;2023-08-20T11:51:44;3.42;;;1.15;;
79308;SDS011;68767;53.078;7.386;2023-08-20T11:54:16;9.20;;;1.50;;
79308;SDS011;68767;53.078;7.386;2023-08-20T11:56:45;5.05;;;1.55;;
79308;SDS011;68767;53.078;7.386;2023-08-20T11:59:14;8.63;;;1.85;;
79308;SDS011;68767;53.078;7.386;2023-08-20T12:01:41;3.25;;;1.17;;
79308;SDS011;68767;53.078;7.386;2023-08-20T12:04:09;4.03;;;1.15;;
79308;SDS011;68767;53.078;7.386;2023-08-20T12:06:37;2.75;;;1.20;;
79308;SDS011;68767;53.078;7.386;2023-08-20T12:09:20;4.43;;;1.35;;
79308;SDS011;68767;53.078;7.386;2023-08-20T12:11:52;2.90;;;1.00;;
79308;SDS011;68767;53.078;7.386;2023-08-20T12:14:22;5.07;;;1.42;;
79308;SDS011;68767;53.078;7.386;2023-08-20T12:16:49;5.25;;;1.40;;
79308;SDS011;68767;53.078;7.386;2023-08-20T12:19:19;4.22;;;1.55;;
79308;SDS011;68767;53.078;7.386;2023-08-20T12:21:46;3.45;;;1.15;;
79308;SDS011;68767;53.078;7.386;2023-08-20T12:24:13;4.55;;;1.40;;
79308;SDS011;68767;53.078;7.386;2023-08-20T12:26:41;4.65;;;1.60;;
79308;SDS011;68767;53.078;7.386;2023-08-20T12:29:09;10.20;;;1.60;;
79308;SDS011;68767;53.078;7.386;2023-08-20T12:31:36;3.38;;;1.17;;
79308;SDS011;68767;53.078;7.386;2023-08-20T12:34:03;7.10;;;1.73;;
79308;SDS011;68767;53.078;7.386;2023-08-20T12:36:30;5.65;;;1.40;;
79308;SDS011;68767;53.078;7.386;2023-08-20T12:38:57;6.05;;;1.65;;
79308;SDS011;68767;53.078;7.386;2023-08-20T12:41:24;6.03;;;1.70;;
79308;SDS011;68767;53.078;7.386;2023-08-20T12:43:51;5.47;;;1.30;;
79308;SDS011;68767;53.078;7.386;2023-08-20T12:46:18;3.15;;;1.23;;
79308;SDS011;68767;53.078;7.386;2023-08-20T12:48:46;6.20;;;1.40;;
79308;SDS011;68767;53.078;7.386;2023-08-20T12:51:13;3.65;;;1.15;;
79308;SDS011;68767;53.078;7.386;2023-08-20T12:53:43;3.78;;;1.27;;
79308;SDS011;68767;53.078;7.386;2023-08-20T12:56:11;3.85;;;1.30;;
79308;SDS011;68767;53.078;7.386;2023-08-20T12:58:40;5.32;;;1.30;;
79308;SDS011;68767;53.078;7.386;2023-08-20T13:01:15;4.07;;;1.30;;
79308;SDS011;68767;53.078;7.386;2023-08-20T13:03:44;3.63;;;1.20;;
79308;SDS011;68767;53.078;7.386;2023-08-20T13:06:12;5.80;;;1.63;;
79308;SDS011;68767;53.078;7.386;2023-08-20T13:08:40;4.95;;;1.40;;
79308;SDS011;68767;53.078;7.386;2023-08-20T13:11:08;3.90;;;1.25;;
79308;SDS011;68767;53.078;7.386;2023-08-20T13:13:40;4.35;;;1.30;;
79308;SDS011;68767;53.078;7.386;2023-08-20T13:16:08;5.07;;;2.20;;
79308;SDS011;68767;53.078;7.386;2023-08-20T13:18:35;7.03;;;2.72;;
79308;SDS011;68767;53.078;7.386;2023-08-20T13:21:02;3.95;;;1.60;;
79308;SDS011;68767;53.078;7.386;2023-08-20T13:23:30;2.72;;;1.35;;
79308;SDS011;68767;53.078;7.386;2023-08-20T13:25:57;5.10;;;1.27;;
79308;SDS011;68767;53.078;7.386;2023-08-20T13:28:24;4.13;;;1.23;;
79308;SDS011;68767;53.078;7.386;2023-08-20T13:30:51;5.47;;;1.40;;
79308;SDS011;68767;53.078;7.386;2023-08-20T13:33:18;2.78;;;1.10;;
79308;SDS011;68767;53.078;7.386;2023-08-20T13:35:45;9.23;;;1.10;;
79308;SDS011;68767;53.078;7.386;2023-08-20T13:38:12;3.10;;;1.10;;
79308;SDS011;68767;53.078;7.386;2023-08-20T13:40:39;6.85;;;1.30;;
79308;SDS011;68767;53.078;7.386;2023-08-20T13:43:06;2.33;;;0.95;;
79308;SDS011;68767;53.078;7.386;2023-08-20T13:45:36;4.30;;;1.20;;
79308;SDS011;68767;53.078;7.386;2023-08-20T13:48:03;2.95;;;1.10;;
79308;SDS011;68767;53.078;7.386;2023-08-20T13:50:30;3.92;;;1.02;;
79308;SDS011;68767;53.078;7.386;2023-08-20T13:52:57;3.05;;;0.82;;
79308;SDS011;68767;53.078;7.386;2023-08-20T13:55:27;3.35;;;1.10;;
79308;SDS011;68767;53.078;7.386;2023-08-20T13:57:54;4.38;;;1.23;;
79308;SDS011;68767;53.078;7.386;2023-08-20T14:00:21;3.47;;;1.20;;
79308;SDS011;68767;53.078;7.386;2023-08-20T14:02:48;3.35;;;1.10;;
79308;SDS011;68767;53.078;7.386;2023-08-20T14:05:14;5.60;;;1.25;;
79308;SDS011;68767;53.078;7.386;2023-08-20T14:07:41;3.60;;;1.27;;
79308;SDS011;68767;53.078;7.386;2023-08-20T14:10:09;3.28;;;1.20;;
79308;SDS011;68767;53.078;7.386;2023-08-20T14:12:37;3.75;;;1.77;;
79308;SDS011;68767;53.078;7.386;2023-08-20T14:15:07;4.03;;;1.35;;
79308;SDS011;68767;53.078;7.386;2023-08-20T14:17:34;5.15;;;1.48;;
79308;SDS011;68767;53.078;7.386;2023-08-20T14:20:01;3.30;;;1.30;;
79308;SDS011;68767;53.078;7.386;2023-08-20T14:22:29;3.13;;;1.00;;
79308;SDS011;68767;53.078;7.386;2023-08-20T14:24:56;4.20;;;1.38;;
79308;SDS011;68767;53.078;7.386;2023-08-20T14:27:23;4.80;;;1.33;;
79308;SDS011;68767;53.078;7.386;2023-08-20T14:29:50;5.65;;;1.50;;
79308;SDS011;68767;53.078;7.386;2023-08-20T14:32:17;6.60;;;1.20;;
79308;SDS011;68767;53.078;7.386;2023-08-20T14:34:44;3.75;;;1.20;;
79308;SDS011;68767;53.078;7.386;2023-08-20T14:37:11;6.65;;;1.40;;
79308;SDS011;68767;53.078;7.386;2023-08-20T14:39:40;5.65;;;1.20;;
79308;SDS011;68767;53.078;7.386;2023-08-20T14:42:07;2.95;;;1.10;;
79308;SDS011;68767;53.078;7.386;2023-08-20T14:44:34;3.65;;;1.23;;
79308;SDS011;68767;53.078;7.386;2023-08-20T14:47:01;5.18;;;1.15;;
79308;SDS011;68767;53.078;7.386;2023-08-20T14:49:31;5.57;;;2.13;;
79308;SDS011;68767;53.078;7.386;2023-08-20T14:51:58;2.88;;;1.08;;
79308;SDS011;68767;53.078;7.386;2023-08-20T14:54:44;4.80;;;1.35;;
79308;SDS011;68767;53.078;7.386;2023-08-20T14:57:11;3.00;;;1.17;;
79308;SDS011;68767;53.078;7.386;2023-08-20T14:59:38;4.70;;;1.17;;
79308;SDS011;68767;53.078;7.386;2023-08-20T15:02:05;3.17;;;1.33;;